Date,TemperatureHighF,TemperatureAvgF,TemperatureLowF,DewpointHighF,DewpointAvgF,DewpointLowF,HumidityHigh,HumidityAvg,HumidityLow,PressureMaxIn,PressureMinIn,WindSpeedMaxMPH,WindSpeedAvgMPH,GustSpeedMaxMPH,PrecipitationSumIn
2013-1-1,60.6,60.6,60.6,55.1,55.1,55.1,82,82,82,29.90,29.90,0,0,1,0.00
2013-1-2,60.6,60.6,60.6,55.1,55.1,55.1,82,82,82,29.90,29.90,0,0,1,0.00
2013-1-3,60.6,60.6,60.6,55.1,55.1,55.1,82,82,82,29.90,29.90,0,0,1,0.00
2013-1-4,60.6,60.6,60.6,55.1,55.1,55.1,82,82,82,29.90,29.90,0,0,1,0.00
2013-1-5,60.6,60.6,60.6,55.1,55.1,55.1,82,82,82,29.90,29.90,0,0,1,0.00
2013-1-6,60.6,60.6,60.6,55.1,55.1,55.1,82,82,82,29.90,29.90,0,0,1,0.00
2013-1-7,60.6,60.6,60.6,55.1,55.1,55.1,82,82,82,29.90,29.90,0,0,1,0.00
2013-1-8,60.6,60.6,60.6,55.1,55.1,55.1,82,82,82,29.90,29.90,0,0,1,0.00
2013-1-9,60.6,60.6,60.6,55.1,55.1,55.1,82,82,82,29.90,29.90,0,0,1,0.00
2013-1-10,60.6,60.6,60.6,55.1,55.1,55.1,82,82,82,29.90,29.90,0,0,1,0.00
2013-1-11,60.6,60.6,60.6,55.1,55.1,55.1,82,82,82,29.90,29.90,0,0,1,0.00
2013-1-12,60.6,60.6,60.6,55.1,55.1,55.1,82,82,82,29.90,29.90,0,0,1,0.00
2013-1-13,60.6,60.6,60.6,55.1,55.1,55.1,82,82,82,29.90,29.90,0,0,1,0.00
2013-1-19,60.6,60.6,60.6,55.1,55.1,55.1,82,82,82,29.90,29.90,0,0,1,0.00
2013-1-20,60.6,42.5,21.4,55.1,33.4,10.5,82,70,53,30.28,29.90,12,2,16,0.00
2013-1-21,21.4,15.5,8.2,10.7,4.9,-2.0,72,63,53,30.18,30.04,18,8,45,0.00
2013-1-22,16.9,10.6,4.6,3.5,0.5,-1.9,75,64,52,30.31,30.18,15,6,21,0.00
2013-1-23,24.1,19.2,13.1,13.8,7.8,1.8,65,60,54,30.26,30.01,12,4,24,0.00
2013-1-24,27.0,19.9,12.7,14.0,9.1,6.5,76,63,46,30.51,30.10,11,3,16,0.00
2013-1-25,30.0,24.4,20.3,21.8,16.0,10.0,77,70,61,30.29,29.92,10,3,14,0.00
2013-1-26,31.8,25.0,18.9,20.7,16.5,11.6,78,70,59,30.31,29.98,8,2,10,0.00
2013-1-27,36.3,29.4,22.1,30.9,23.0,16.0,84,77,69,30.32,29.92,11,3,17,0.20
2013-1-28,50.7,47.1,36.3,43.9,39.1,30.7,81,74,64,29.93,29.82,15,3,22,0.08
2013-1-29,59.0,56.6,49.6,52.3,45.3,32.9,80,67,43,29.83,29.25,20,6,37,0.28
2013-1-30,57.7,51.5,50.7,50.9,42.6,39.8,78,72,66,29.35,29.25,13,4,17,0.43
2013-1-31,26.8,20.2,9.7,18.9,13.1,3.3,82,74,68,30.06,29.70,19,10,28,0.00
2013-2-1,20.3,12.9,5.2,12.8,5.6,-0.7,77,72,64,30.34,30.06,17,7,23,0.00
2013-2-2,30.0,23.7,15.6,24.1,18.4,10.3,83,80,74,30.15,29.88,12,4,20,0.00
2013-2-3,28.8,20.0,10.2,21.0,14.0,5.0,82,77,71,29.98,29.86,12,3,18,0.00
2013-2-4,39.0,29.8,24.1,28.5,22.5,18.6,83,74,63,29.97,29.70,9,2,13,0.04
2013-2-5,37.9,30.5,22.3,30.1,24.8,18.2,85,79,67,29.95,29.72,11,3,16,0.00
2013-2-6,39.7,33.8,30.4,27.8,25.6,22.9,81,72,61,30.18,29.95,10,2,15,0.00
2013-2-7,50.2,39.3,32.0,39.7,33.0,26.9,84,78,67,30.10,29.72,14,2,17,0.12
2013-2-8,37.9,33.8,31.3,33.5,28.9,26.1,85,82,75,30.28,29.76,14,5,18,0.00
2013-2-9,40.8,34.1,27.5,30.0,26.3,21.9,81,73,64,30.32,30.10,11,2,15,0.00
2013-2-14,38.5,36.0,31.8,31.9,29.8,26.4,80,78,76,29.89,29.85,10,3,14,0.00
2013-2-15,35.4,32.2,27.5,28.4,24.0,16.3,82,72,54,30.08,29.88,11,2,14,0.00
2013-2-16,28.2,23.1,17.4,18.1,12.6,9.1,75,64,51,30.07,30.01,12,4,17,0.00
2013-2-17,32.7,22.3,11.3,16.2,11.0,4.8,77,62,46,30.14,30.00,9,1,24,0.00
2013-2-18,55.8,40.8,26.4,43.1,31.3,15.3,83,69,59,30.00,29.39,22,6,33,0.16
2013-2-19,45.7,24.1,18.0,40.8,17.8,11.1,84,76,70,30.08,29.40,25,12,49,0.06
2013-2-20,28.2,19.6,11.1,17.1,11.2,4.4,75,70,62,30.27,30.08,15,4,19,0.00
2013-2-21,31.1,27.3,22.8,22.6,20.1,15.6,84,74,67,30.27,29.90,12,2,22,0.00
2013-2-22,38.1,32.0,26.4,33.2,27.6,22.1,85,84,80,29.93,29.75,12,4,38,0.06
2013-2-23,34.7,30.1,27.7,25.1,23.5,21.8,82,76,66,29.90,29.85,12,4,18,0.02
2013-2-24,38.1,28.9,18.7,26.4,21.7,-1.2,84,75,61,30.06,29.89,8,1,22,0.04
2013-2-25,43.9,33.7,24.4,31.8,26.5,20.6,85,75,60,30.08,29.84,10,2,15,0.00
2013-2-26,35.8,34.4,32.9,30.9,28.9,26.4,84,80,72,29.84,29.33,14,3,25,0.85
2013-2-27,37.4,34.2,32.7,33.3,29.2,26.9,85,82,76,29.57,29.38,12,4,20,0.08
2013-2-28,41.2,35.5,33.1,35.6,30.8,28.2,85,83,80,29.92,29.57,15,5,19,0.04
2013-3-1,38.8,33.1,29.8,31.3,27.5,23.5,85,80,71,30.02,29.90,9,3,15,0.02
2013-3-2,36.3,30.6,27.5,26.4,22.9,20.3,80,73,59,30.05,29.99,10,3,19,0.00
2013-3-3,39.4,30.0,22.8,24.8,20.3,17.0,79,67,51,30.03,29.96,11,3,14,0.00
2013-3-4,41.0,31.7,21.7,28.2,23.3,16.7,83,72,57,30.06,29.89,9,1,13,0.00
2013-3-5,36.5,33.5,29.3,31.7,29.1,25.1,85,84,79,29.91,29.63,11,2,24,0.00
2013-3-6,37.4,32.8,29.1,31.5,28.0,25.0,85,82,78,30.18,29.75,13,5,27,0.04
2013-3-7,46.8,35.7,27.7,34.1,28.0,22.8,85,74,56,30.32,30.17,6,1,10,0.10
2013-3-8,43.0,32.5,21.9,30.3,24.9,18.1,85,74,58,30.41,30.26,7,1,11,0.00
2013-3-9,46.8,39.3,30.4,37.7,31.8,24.3,80,75,64,30.26,29.82,10,3,15,0.00
2013-3-10,65.8,52.7,42.1,50.5,42.2,34.2,80,68,53,29.82,29.60,16,2,21,0.02
2013-3-11,55.2,44.7,34.9,47.7,39.6,30.1,85,82,69,29.74,29.52,18,5,26,0.04
2013-3-12,40.6,34.2,31.8,30.2,28.3,25.7,83,79,63,29.93,29.74,24,7,42,0.00
2013-3-13,37.6,31.0,27.3,27.5,21.5,18.3,82,68,53,30.23,29.92,14,7,21,0.00
2013-3-14,45.0,33.4,23.5,29.8,24.1,16.9,82,69,51,30.27,30.04,9,3,13,0.00
2013-3-15,52.5,40.1,29.5,42.3,33.7,25.2,85,78,66,30.05,29.62,7,1,10,0.00
2013-3-16,44.4,39.3,32.9,39.3,33.6,25.5,84,80,72,30.00,29.51,12,3,18,0.00
2013-3-17,41.0,34.8,31.6,28.1,25.9,24.3,76,70,59,30.08,29.89,10,2,17,0.00
2013-3-18,39.7,34.7,29.1,35.3,29.8,21.7,85,82,75,29.90,29.49,20,5,31,0.04
2013-3-19,38.8,30.2,21.9,22.5,19.1,14.6,76,64,49,30.01,29.74,25,11,34,0.00
2013-3-20,32.2,27.5,23.2,19.6,15.1,11.5,72,60,45,30.02,29.92,16,7,27,0.00
2013-3-21,37.8,27.3,16.7,18.0,14.3,8.9,72,59,42,29.96,29.90,13,4,19,0.00
2013-3-22,45.1,32.5,19.8,24.0,19.1,13.9,80,59,41,30.00,29.90,12,2,17,0.00
2013-3-23,47.1,36.5,28.0,27.2,23.3,19.0,70,59,44,30.02,29.87,7,1,16,0.00
2013-3-24,37.4,32.7,30.7,28.8,26.0,22.8,84,76,65,29.89,29.42,17,4,25,0.02
2013-3-25,43.5,34.7,29.3,33.5,28.1,24.9,85,77,62,29.94,29.51,14,5,20,0.26
2013-3-26,47.7,37.4,31.3,33.3,28.9,26.1,83,72,54,30.15,29.94,11,4,16,0.02
2013-3-27,48.6,36.7,26.2,34.8,27.4,21.7,84,70,51,30.23,30.14,13,3,21,0.00
2013-3-28,50.2,39.5,27.1,33.1,28.8,22.4,84,67,51,30.28,30.18,9,1,13,0.00
2013-3-29,55.4,43.7,34.0,37.3,31.4,26.9,82,63,42,30.24,30.11,7,1,10,0.00
2013-3-30,61.5,46.8,31.8,40.1,33.2,25.6,82,61,41,30.13,29.82,9,1,16,0.00
2013-3-31,63.7,53.1,43.2,44.8,41.3,26.8,83,66,48,29.83,29.63,17,4,22,0.00
2013-4-1,46.4,40.7,31.8,29.9,23.9,17.3,70,52,35,30.08,29.77,14,5,32,0.00
2013-4-2,47.8,36.2,25.0,23.9,18.6,15.2,72,51,31,30.22,30.07,14,3,21,0.00
2013-4-3,50.2,38.5,27.0,24.4,19.5,14.9,69,48,32,30.37,30.20,7,0,12,0.00
2013-4-4,58.8,44.2,30.7,29.9,24.6,19.6,71,48,29,30.26,29.89,9,1,13,0.00
2013-4-5,57.9,46.6,36.0,36.0,27.3,20.4,71,49,27,30.08,29.90,11,3,18,0.00
2013-4-6,69.8,53.1,35.2,42.7,34.2,23.1,67,50,36,30.07,29.63,19,4,24,0.00
2013-4-7,70.9,59.4,48.6,47.5,43.5,38.1,81,57,37,29.85,29.61,20,5,27,0.04
2013-4-8,76.1,62.3,49.8,64.6,51.0,38.5,82,68,52,29.84,29.66,20,5,26,0.18
2013-4-9,60.1,60.1,60.1,51.0,51.0,51.0,72,72,72,29.83,29.83,1,0,2,0.00
2013-4-10,60.1,57.1,48.7,51.0,48.8,41.7,81,74,72,32.04,29.66,7,2,13,0.22
2013-4-11,55.9,51.2,50.4,50.5,42.6,40.6,82,72,69,29.68,29.50,4,3,10,0.12
2013-4-12,52.0,48.8,40.3,47.0,42.9,34.6,83,80,73,29.80,29.55,14,4,17,0.00
2013-4-13,50.9,42.6,38.1,37.1,34.6,31.7,84,74,58,29.91,29.80,19,5,23,0.02
2013-4-14,70.9,55.0,43.0,53.2,43.2,35.8,79,66,47,29.94,29.65,17,3,25,0.00
2013-4-15,67.5,61.9,56.1,58.5,52.6,45.4,82,72,62,29.82,29.68,15,3,28,0.00
2013-4-16,58.1,50.1,46.2,52.6,43.3,37.9,83,77,66,30.13,29.80,12,2,15,0.71
2013-4-17,63.7,53.1,46.0,56.9,46.0,38.7,82,77,65,30.15,29.77,11,2,18,0.67
2013-4-18,73.2,60.7,49.8,65.8,50.1,37.5,82,69,44,29.77,29.46,21,4,33,1.75
2013-4-19,49.6,40.4,36.7,44.7,34.5,31.7,84,79,74,29.84,29.47,20,10,29,0.24
2013-4-20,50.2,40.4,31.8,32.3,29.2,25.3,85,66,47,30.33,29.84,13,4,18,0.00
2013-4-21,54.3,43.3,31.1,34.0,29.5,23.5,75,59,44,30.44,30.27,11,2,17,0.00
2013-4-22,66.7,52.8,36.7,42.0,36.8,30.6,81,57,36,30.27,29.97,10,2,15,0.00
2013-4-23,70.2,56.1,41.9,55.1,46.3,37.1,84,70,52,30.00,29.71,19,2,25,1.06
2013-4-24,51.1,42.6,38.8,42.2,35.8,32.8,84,77,57,30.10,29.76,14,4,20,0.24
2013-4-25,53.2,45.3,36.1,40.6,33.1,30.0,83,64,45,30.26,30.04,26,4,28,0.00
2013-4-26,66.9,52.0,37.2,45.3,38.3,30.2,77,61,44,30.32,30.20,11,1,15,0.00
2013-4-27,71.2,57.2,43.5,49.7,43.7,38.5,83,63,35,30.23,29.90,12,1,20,0.00
2013-4-28,64.2,57.6,53.4,57.2,51.6,47.1,83,80,77,29.90,29.73,4,0,7,0.26
2013-4-29,73.6,63.0,54.3,59.5,53.6,48.9,83,72,55,29.88,29.74,9,2,17,0.00
2013-4-30,83.7,69.9,55.8,63.1,57.0,50.0,82,65,46,29.88,29.78,11,2,22,0.00
2013-5-1,84.9,72.8,58.3,61.4,57.2,52.1,82,60,42,30.03,29.88,16,1,23,0.00
2013-5-2,84.4,71.0,53.8,62.9,56.3,43.8,78,61,42,30.06,29.93,9,1,15,0.00
2013-5-3,77.4,60.2,48.0,63.3,52.1,41.0,81,75,58,29.98,29.80,16,1,24,0.16
2013-5-4,75.9,65.4,57.6,54.9,51.1,47.8,76,61,44,29.91,29.82,12,1,17,0.00
2013-5-5,71.4,62.1,54.7,54.7,51.2,49.3,82,68,51,29.91,29.85,8,1,14,0.00
2013-5-6,78.1,65.8,56.8,56.8,51.5,45.6,74,61,46,29.90,29.82,9,1,16,0.00
2013-5-7,80.8,67.8,55.2,59.1,52.0,43.7,73,58,41,29.93,29.83,6,0,9,0.00
2013-5-8,83.1,71.2,58.1,61.0,53.4,49.6,79,55,36,29.94,29.83,6,0,9,0.00
2013-5-9,82.6,66.5,57.6,61.8,55.7,49.5,82,69,46,29.89,29.73,11,1,18,0.26
2013-5-10,68.2,58.9,44.8,61.8,51.4,39.8,83,77,66,29.85,29.69,11,2,14,0.06
2013-5-11,67.3,51.9,44.2,56.1,43.3,34.5,84,73,53,29.93,29.74,16,2,23,0.00
2013-5-12,61.2,49.4,38.8,36.4,32.5,28.4,74,54,35,30.02,29.92,14,2,20,0.00
2013-5-13,67.6,53.6,37.9,38.7,32.7,29.2,73,49,26,30.10,29.96,10,1,15,0.00
2013-5-14,88.3,70.4,53.2,62.8,50.4,34.2,64,50,42,29.98,29.64,16,3,26,0.00
2013-5-15,86.2,76.7,68.7,62.6,57.5,52.7,67,53,35,29.74,29.63,18,4,26,0.04
2013-5-16,86.4,73.1,60.4,58.4,52.9,46.6,77,51,30,29.85,29.70,6,0,9,0.00
2013-5-17,86.2,70.9,62.6,66.0,59.9,50.6,81,69,50,29.94,29.84,7,0,13,0.51
2013-5-18,82.8,70.6,60.1,66.8,60.0,50.0,83,70,57,29.98,29.85,7,0,13,0.02
2013-5-19,89.8,76.2,63.1,70.2,64.0,56.2,82,67,47,29.88,29.70,10,1,15,0.00
2013-5-20,89.6,79.5,70.9,73.2,67.5,64.1,81,68,51,29.77,29.67,14,2,24,0.00
2013-5-21,87.1,76.3,64.0,68.7,64.2,58.1,82,68,48,29.71,29.59,17,3,25,0.22
2013-5-22,81.3,72.0,64.2,65.2,61.8,57.1,80,71,53,29.68,29.57,18,3,26,0.16
2013-5-23,64.2,58.3,50.2,57.9,51.1,42.2,82,77,68,30.03,29.66,14,3,21,0.00
2013-5-24,50.2,50.2,50.2,42.2,42.2,42.2,74,74,74,30.03,30.03,6,6,13,0.00
2013-5-25,50.2,50.2,50.2,42.2,42.2,42.2,74,74,74,30.03,30.03,6,6,13,0.00
2013-5-26,50.2,50.2,50.2,42.2,42.2,42.2,74,74,74,30.03,30.03,6,6,13,0.00
2013-5-27,74.3,65.8,50.2,66.6,58.9,42.2,83,79,70,30.03,29.76,13,1,18,0.75
2013-5-28,83.8,72.9,62.8,71.8,62.3,48.2,82,70,59,29.82,29.71,16,2,26,0.06
2013-5-29,88.5,77.7,69.1,71.3,65.4,59.3,80,67,52,29.88,29.77,14,2,25,0.00
2013-5-30,89.4,78.4,68.2,72.0,66.3,60.6,81,67,52,29.90,29.76,18,3,26,0.00
2013-5-31,82.2,72.9,65.8,70.5,65.0,59.5,82,77,66,29.86,29.66,12,2,22,1.53
2013-6-1,78.1,70.6,62.4,67.2,61.6,25.7,82,73,66,29.74,29.62,18,2,29,0.79
2013-6-2,71.8,62.6,54.1,64.4,54.7,45.3,83,76,65,29.96,29.66,10,2,15,0.02
2013-6-3,70.2,58.8,46.0,50.7,46.2,40.7,83,65,45,30.03,29.92,6,0,10,0.00
2013-6-4,77.5,64.8,50.7,55.7,50.6,45.6,83,62,42,30.08,29.97,6,0,13,0.00
2013-6-5,82.2,69.8,56.3,59.3,53.3,47.6,74,57,40,30.01,29.78,5,0,10,0.00
2013-6-6,81.1,70.0,60.3,59.9,54.1,46.3,71,58,45,29.80,29.70,8,1,10,0.00
2013-6-7,79.5,68.5,60.4,61.4,55.7,47.5,81,65,48,29.81,29.72,6,1,12,0.00
2013-6-8,83.5,69.0,54.3,61.2,53.6,46.2,82,60,38,29.90,29.80,9,0,13,0.00
2013-6-9,88.3,74.9,63.3,66.8,60.4,54.1,81,63,40,29.92,29.72,9,1,15,0.00
2013-6-10,83.7,73.1,64.2,67.5,62.7,56.8,82,71,51,29.74,29.65,9,1,16,0.47
2013-6-11,88.9,74.0,62.4,69.1,63.9,56.5,82,72,50,29.86,29.73,8,1,15,0.04
2013-6-12,94.1,80.2,68.7,77.4,70.0,61.6,82,72,55,29.80,29.48,24,1,57,2.36
2013-6-13,79.2,70.4,61.7,64.2,59.2,52.5,83,69,50,29.90,29.50,12,2,21,0.06
2013-6-14,109.9,70.0,55.2,71.7,57.5,49.8,83,66,30,30.02,29.89,6,1,12,0.00
2013-6-15,79.3,71.0,62.2,70.1,63.0,56.7,83,76,65,30.00,29.80,4,0,10,0.00
2013-6-16,86.2,76.1,67.6,70.7,66.2,61.8,82,72,58,29.86,29.77,18,2,28,0.00
2013-6-17,91.6,78.5,67.1,73.1,65.5,59.3,82,66,42,29.85,29.76,7,0,12,0.00
2013-6-18,84.6,74.9,66.6,67.6,62.3,57.9,80,66,50,29.91,29.76,6,1,13,0.00
2013-6-19,82.2,71.4,60.1,61.5,58.6,54.2,81,65,48,30.04,29.90,4,0,7,0.00
2013-6-20,90.1,77.1,64.4,69.4,63.0,17.6,78,63,47,30.07,29.97,6,0,14,0.00
2013-6-21,93.0,76.9,66.4,70.7,64.8,59.3,82,68,45,30.06,29.86,12,1,20,0.43
2013-6-22,85.8,74.4,68.4,71.8,65.2,55.6,82,74,63,30.00,29.93,4,1,6,0.00
2013-6-23,89.6,87.2,85.8,73.2,72.3,71.8,63,61,58,29.94,29.93,7,5,7,0.00
2013-6-24,89.4,82.7,69.6,75.3,70.4,63.2,82,67,59,30.00,29.85,7,3,7,0.00
2013-6-25,92.1,83.9,70.2,82.6,72.3,64.4,82,69,55,29.86,29.73,7,2,10,0.08
2013-6-26,79.0,73.1,68.2,72.6,66.6,59.1,82,80,71,29.79,29.62,5,0,5,0.06
2013-6-27,82.6,73.9,71.8,68.8,64.9,56.6,83,74,55,29.67,29.57,5,1,6,0.00
2013-6-28,86.2,74.8,65.3,73.7,63.4,44.5,79,68,45,29.84,29.49,15,2,29,0.00
2013-6-29,79.3,70.1,22.6,67.8,63.0,18.0,83,78,65,29.61,29.47,4,0,7,0.02
2013-6-30,70.3,66.1,65.3,60.7,58.2,53.4,81,76,55,29.65,29.57,0,0,2,0.10